createdAt,value
2022-12-25T00:01:22.157Z,17.70
2022-12-25T00:03:49.088Z,23.42
2022-12-25T00:06:16.282Z,13.90
2022-12-25T00:08:42.980Z,23.33
2022-12-25T00:11:14.299Z,18.55
2022-12-25T00:13:42.598Z,17.30
2022-12-25T00:16:15.068Z,14.43
2022-12-25T00:18:41.440Z,17.23
2022-12-25T00:21:07.983Z,13.73
2022-12-25T00:23:35.400Z,20.52
2022-12-25T00:26:10.869Z,13.47
2022-12-25T00:28:37.416Z,15.60
2022-12-25T00:31:08.465Z,11.40
2022-12-25T00:33:39.665Z,17.13
2022-12-25T00:36:07.409Z,16.45
2022-12-25T00:38:35.873Z,18.93
2022-12-25T00:41:10.487Z,16.90
2022-12-25T00:43:38.369Z,17.50
2022-12-25T00:46:06.688Z,19.15
2022-12-25T00:48:34.093Z,11.82
2022-12-25T00:51:04.172Z,16.47
2022-12-25T00:53:31.520Z,18.33
2022-12-25T00:56:00.642Z,14.23
2022-12-25T00:58:29.416Z,20.52
2022-12-25T01:00:56.238Z,16.00
2022-12-25T01:03:23.365Z,12.23
2022-12-25T01:06:00.909Z,13.55
2022-12-25T01:08:29.135Z,14.60
2022-12-25T01:11:01.848Z,13.57
2022-12-25T01:13:29.178Z,11.52
2022-12-25T01:15:55.635Z,13.50
2022-12-25T01:18:24.016Z,10.32
2022-12-25T01:20:51.179Z,15.80
2022-12-25T01:23:17.570Z,12.43
2022-12-25T01:25:43.928Z,17.77
2022-12-25T01:28:10.519Z,19.67
2022-12-25T01:30:36.905Z,14.23
2022-12-25T01:33:03.343Z,16.63
2022-12-25T01:35:29.683Z,13.57
2022-12-25T01:37:56.064Z,13.88
2022-12-25T01:40:22.629Z,11.33
2022-12-25T01:42:49.152Z,14.95
2022-12-25T01:45:33.534Z,15.02
2022-12-25T01:48:04.831Z,15.10
2022-12-25T01:50:31.678Z,15.10
2022-12-25T01:52:58.414Z,11.30
2022-12-25T01:55:26.445Z,14.05
2022-12-25T01:57:52.885Z,16.05
2022-12-25T02:00:19.362Z,15.93
2022-12-25T02:02:46.235Z,14.23
2022-12-25T02:05:30.789Z,11.23
2022-12-25T02:08:01.887Z,15.30
2022-12-25T02:10:28.255Z,12.85
2022-12-25T02:12:54.843Z,17.15
2022-12-25T02:15:24.889Z,16.27
2022-12-25T02:18:06.218Z,11.40
2022-12-25T02:20:57.939Z,13.05
2022-12-25T02:24:02.387Z,12.27
2022-12-25T02:26:55.464Z,15.57
2022-12-25T02:29:47.840Z,16.85
2022-12-25T02:32:34.745Z,9.70
2022-12-25T02:35:15.282Z,12.40
2022-12-25T02:38:02.201Z,10.23
2022-12-25T02:40:35.483Z,11.02
2022-12-25T02:43:25.316Z,10.35
2022-12-25T02:46:18.435Z,11.33
2022-12-25T02:49:07.622Z,12.93
2022-12-25T02:51:56.986Z,12.93
2022-12-25T02:54:53.739Z,8.45
2022-12-25T02:57:44.199Z,11.05
2022-12-25T03:00:31.042Z,17.37
2022-12-25T03:03:18.913Z,10.15
2022-12-25T03:06:04.401Z,15.75
2022-12-25T03:08:36.785Z,12.57
2022-12-25T03:11:24.600Z,14.85
2022-12-25T03:13:55.403Z,12.13
2022-12-25T03:16:41.152Z,13.90
2022-12-25T03:19:27.040Z,11.50
2022-12-25T03:22:14.971Z,15.18
2022-12-25T03:25:00.251Z,14.13
2022-12-25T03:27:29.148Z,12.73
2022-12-25T03:30:13.924Z,13.52
2022-12-25T03:33:44.678Z,17.50
2022-12-25T03:36:31.869Z,9.95
2022-12-25T03:39:20.699Z,10.68
2022-12-25T03:42:10.746Z,12.50
2022-12-25T03:45:16.845Z,11.13
2022-12-25T03:48:06.634Z,12.70
2022-12-25T03:51:05.653Z,10.70
2022-12-25T03:54:03.127Z,11.68
2022-12-25T03:56:50.430Z,11.70
2022-12-25T03:59:40.218Z,13.40
2022-12-25T04:02:27.690Z,11.63
2022-12-25T04:05:13.361Z,12.07
2022-12-25T04:07:58.003Z,11.45
2022-12-25T04:10:43.184Z,7.77
2022-12-25T04:13:28.459Z,10.57
2022-12-25T04:16:13.720Z,11.85
2022-12-25T04:18:59.655Z,9.55
2022-12-25T04:21:45.143Z,10.45
2022-12-25T04:24:30.589Z,12.57
2022-12-25T04:27:15.905Z,13.63
2022-12-25T04:30:03.735Z,12.45
2022-12-25T04:32:48.552Z,9.85
2022-12-25T04:35:33.310Z,12.90
2022-12-25T04:37:59.671Z,9.20
2022-12-25T04:40:26.077Z,7.63
2022-12-25T04:42:52.957Z,13.93
2022-12-25T04:45:20.094Z,11.25
2022-12-25T04:47:46.515Z,11.13
2022-12-25T04:50:13.105Z,9.67
2022-12-25T04:52:40.861Z,9.18
2022-12-25T04:55:08.580Z,11.23
2022-12-25T04:57:35.442Z,8.77
2022-12-25T05:00:02.019Z,10.15
2022-12-25T05:02:28.630Z,9.77
2022-12-25T05:04:55.088Z,7.93
2022-12-25T05:07:21.452Z,5.95
2022-12-25T05:09:47.876Z,8.40
2022-12-25T05:12:14.279Z,7.40
2022-12-25T05:14:41.199Z,8.07
2022-12-25T05:17:08.087Z,8.02
2022-12-25T05:19:34.840Z,9.48
2022-12-25T05:22:01.176Z,6.72
2022-12-25T05:24:28.550Z,7.38
2022-12-25T05:26:55.075Z,7.40
2022-12-25T05:29:21.456Z,7.28
2022-12-25T05:31:47.912Z,8.05
2022-12-25T05:34:14.321Z,8.45
2022-12-25T05:36:40.667Z,8.30
2022-12-25T05:39:07.033Z,8.47
2022-12-25T05:41:34.616Z,9.75
2022-12-25T05:44:01.501Z,9.00
2022-12-25T05:46:28.030Z,6.55
2022-12-25T05:48:54.421Z,7.68
2022-12-25T05:51:20.810Z,9.03
2022-12-25T05:53:47.281Z,5.65
2022-12-25T05:56:13.696Z,6.38
2022-12-25T05:58:40.726Z,9.07
2022-12-25T06:01:21.858Z,5.88
2022-12-25T06:03:48.577Z,6.33
2022-12-25T06:06:15.101Z,10.13
2022-12-25T06:08:41.764Z,5.65
2022-12-25T06:11:09.391Z,5.85
2022-12-25T06:13:36.641Z,10.93
2022-12-25T06:16:05.288Z,7.67
2022-12-25T06:18:31.694Z,8.70
2022-12-25T06:20:58.079Z,8.07
2022-12-25T06:23:24.494Z,7.97
2022-12-25T06:25:50.873Z,5.35
2022-12-25T06:28:17.224Z,5.93
2022-12-25T06:30:43.573Z,6.32
2022-12-25T06:33:09.941Z,6.90
2022-12-25T06:35:39.338Z,6.72
2022-12-25T06:38:06.023Z,5.57
2022-12-25T06:40:32.384Z,8.70
2022-12-25T06:42:58.733Z,10.20
2022-12-25T06:45:25.174Z,7.40
2022-12-25T06:47:51.542Z,5.07
2022-12-25T06:50:17.947Z,8.32
2022-12-25T06:52:44.300Z,7.43
2022-12-25T06:55:10.636Z,7.28
2022-12-25T06:57:37.139Z,6.43
2022-12-25T07:00:04.745Z,7.72
2022-12-25T07:02:33.302Z,5.40
2022-12-25T07:05:00.891Z,6.53
2022-12-25T07:07:27.247Z,7.15
2022-12-25T07:09:53.584Z,5.72
2022-12-25T07:12:23.450Z,5.85
2022-12-25T07:14:50.258Z,5.57
2022-12-25T07:17:17.670Z,6.57
2022-12-25T07:19:45.433Z,5.90
2022-12-25T07:22:12.600Z,4.28
2022-12-25T07:24:39.263Z,6.05
2022-12-25T07:27:06.061Z,7.93
2022-12-25T07:29:32.424Z,4.10
2022-12-25T07:31:58.875Z,6.40
2022-12-25T07:34:25.649Z,5.35
2022-12-25T07:36:52.169Z,4.68
2022-12-25T07:39:18.529Z,6.00
2022-12-25T07:41:44.926Z,5.30
2022-12-25T07:44:11.359Z,7.97
2022-12-25T07:46:37.753Z,7.85
2022-12-25T07:49:04.127Z,6.22
2022-12-25T07:51:30.571Z,6.78
2022-12-25T07:53:56.997Z,4.70
2022-12-25T07:56:23.613Z,4.93
2022-12-25T07:58:50.172Z,8.40
2022-12-25T08:01:20.333Z,5.43
2022-12-25T08:03:52.001Z,9.00
2022-12-25T08:06:19.451Z,5.73
2022-12-25T08:08:46.103Z,4.35
2022-12-25T08:11:12.469Z,7.72
2022-12-25T08:13:38.902Z,5.20
2022-12-25T08:16:08.518Z,4.38
2022-12-25T08:18:36.368Z,3.80
2022-12-25T08:21:11.624Z,5.63
2022-12-25T08:23:40.753Z,4.43
2022-12-25T08:26:10.730Z,4.07
2022-12-25T08:28:37.152Z,3.17
2022-12-25T08:31:13.894Z,4.03
2022-12-25T08:33:40.382Z,4.45
2022-12-25T08:36:08.987Z,4.18
2022-12-25T08:38:36.130Z,5.85
2022-12-25T08:41:02.548Z,5.20
2022-12-25T08:43:28.989Z,5.73
2022-12-25T08:45:55.522Z,3.63
2022-12-25T08:48:22.056Z,4.22
2022-12-25T08:50:50.199Z,5.20
2022-12-25T08:53:17.464Z,6.82
2022-12-25T08:55:44.197Z,6.63
2022-12-25T08:58:11.358Z,8.55
2022-12-25T09:00:38.753Z,4.40
2022-12-25T09:03:05.395Z,4.70
2022-12-25T09:05:35.304Z,4.00
2022-12-25T09:08:01.661Z,8.33
2022-12-25T09:10:28.122Z,5.82
2022-12-25T09:12:55.576Z,5.47
2022-12-25T09:15:21.981Z,5.38
2022-12-25T09:17:48.386Z,6.63
2022-12-25T09:20:14.877Z,9.03
2022-12-25T09:22:41.303Z,7.43
2022-12-25T09:25:08.065Z,4.13
2022-12-25T09:27:34.479Z,6.65
2022-12-25T09:30:03.929Z,6.45
2022-12-25T09:32:30.286Z,7.87
2022-12-25T09:34:56.621Z,4.07
2022-12-25T09:37:22.955Z,4.25
2022-12-25T09:39:52.523Z,8.02
2022-12-25T09:42:25.286Z,3.72
2022-12-25T09:45:04.454Z,6.60
2022-12-25T09:47:33.959Z,6.25
2022-12-25T09:50:11.234Z,5.35
2022-12-25T09:52:46.367Z,6.13
2022-12-25T09:55:19.971Z,7.03
2022-12-25T09:57:51.705Z,4.23
2022-12-25T10:00:21.637Z,4.70
2022-12-25T10:03:09.234Z,3.22
2022-12-25T10:05:51.343Z,5.75
2022-12-25T10:08:32.173Z,5.55
2022-12-25T10:11:37.145Z,4.20
2022-12-25T10:14:25.306Z,5.28
2022-12-25T10:17:04.175Z,4.95
2022-12-25T10:20:10.550Z,5.43
2022-12-25T10:22:51.323Z,6.20
2022-12-25T10:25:21.679Z,5.33
2022-12-25T10:28:02.647Z,7.60
2022-12-25T10:30:29.785Z,4.75
2022-12-25T10:32:57.688Z,4.85
2022-12-25T10:35:28.247Z,6.10
2022-12-25T10:38:12.384Z,6.20
2022-12-25T10:40:59.087Z,5.80
2022-12-25T10:43:41.614Z,4.75
2022-12-25T10:46:12.033Z,5.68
2022-12-25T10:48:43.450Z,5.47
2022-12-25T10:51:10.005Z,4.50
2022-12-25T10:53:42.293Z,5.43
2022-12-25T10:56:17.479Z,4.43
2022-12-25T10:58:44.075Z,6.43
2022-12-25T11:01:11.436Z,7.10
2022-12-25T11:03:40.567Z,6.93
2022-12-25T11:06:20.841Z,5.45
2022-12-25T11:08:53.566Z,6.53
2022-12-25T11:11:20.720Z,5.50
2022-12-25T11:14:01.615Z,6.60
2022-12-25T11:16:38.380Z,5.63
2022-12-25T11:19:24.301Z,6.22
2022-12-25T11:21:53.098Z,7.68
2022-12-25T11:24:22.352Z,5.75
2022-12-25T11:26:58.926Z,7.50
2022-12-25T11:29:37.472Z,5.70
2022-12-25T11:32:11.516Z,4.70
2022-12-25T11:34:45.066Z,7.68
2022-12-25T11:37:17.474Z,8.95
2022-12-25T11:39:46.251Z,6.72
2022-12-25T11:42:19.664Z,5.60
2022-12-25T11:44:54.854Z,8.63
2022-12-25T11:47:28.186Z,7.53
2022-12-25T11:50:01.244Z,5.35
2022-12-25T11:52:33.832Z,6.07
2022-12-25T11:55:22.141Z,4.77
2022-12-25T11:57:55.273Z,4.95
2022-12-25T12:00:22.127Z,6.75
2022-12-25T12:03:11.579Z,7.80
2022-12-25T12:05:47.967Z,10.70
2022-12-25T12:08:15.521Z,6.17
2022-12-25T12:11:15.933Z,5.70
2022-12-25T12:14:05.786Z,6.00
2022-12-25T12:16:32.800Z,8.00
2022-12-25T12:19:25.660Z,7.40
2022-12-25T12:21:54.136Z,9.53
2022-12-25T12:24:22.713Z,6.65
2022-12-25T12:27:02.393Z,10.57
2022-12-25T12:29:40.746Z,9.32
2022-12-25T12:32:56.173Z,12.13
2022-12-25T12:35:32.871Z,6.40
2022-12-25T12:38:11.991Z,8.25
2022-12-25T12:40:42.996Z,8.77
2022-12-25T12:43:57.703Z,7.88
2022-12-25T12:46:31.080Z,9.45
2022-12-25T12:49:21.809Z,7.20
2022-12-25T12:52:22.478Z,8.07
2022-12-25T12:54:56.750Z,10.05
2022-12-25T12:57:39.825Z,9.82
2022-12-25T13:00:15.978Z,9.68
2022-12-25T13:03:09.567Z,7.93
2022-12-25T13:06:28.403Z,8.75
2022-12-25T13:09:39.422Z,7.65
2022-12-25T13:12:08.206Z,7.57
2022-12-25T13:14:37.837Z,7.85
2022-12-25T13:17:21.757Z,8.03
2022-12-25T13:20:22.686Z,8.25
2022-12-25T13:22:58.349Z,9.27
2022-12-25T13:25:24.800Z,9.30
2022-12-25T13:27:55.949Z,10.30
2022-12-25T13:30:23.469Z,7.33
2022-12-25T13:32:55.156Z,9.68
2022-12-25T13:35:23.359Z,11.18
2022-12-25T13:37:50.507Z,7.30
2022-12-25T13:40:27.838Z,10.02
2022-12-25T13:42:59.127Z,7.83
2022-12-25T13:45:28.819Z,8.25
2022-12-25T13:47:56.073Z,10.18
2022-12-25T13:50:27.512Z,8.88
2022-12-25T13:52:55.669Z,11.25
2022-12-25T13:55:27.988Z,12.43
2022-12-25T13:57:59.015Z,12.43
2022-12-25T14:00:32.407Z,9.40
2022-12-25T14:03:07.437Z,12.27
2022-12-25T14:05:42.932Z,10.48
2022-12-25T14:08:21.840Z,10.20
2022-12-25T14:10:50.186Z,9.48
2022-12-25T14:13:20.476Z,14.43
2022-12-25T14:15:50.216Z,14.30
2022-12-25T14:18:19.340Z,13.80
2022-12-25T14:21:01.513Z,11.50
2022-12-25T14:23:37.589Z,12.02
2022-12-25T14:26:04.241Z,10.07
2022-12-25T14:28:50.259Z,9.98
2022-12-25T14:31:16.994Z,12.07
2022-12-25T14:33:43.789Z,11.90
2022-12-25T14:36:13.171Z,9.57
2022-12-25T14:38:58.934Z,11.35
2022-12-25T14:41:53.203Z,12.02
2022-12-25T14:44:39.422Z,11.00
2022-12-25T14:47:17.839Z,10.03
2022-12-25T14:49:45.172Z,9.65
2022-12-25T14:52:39.373Z,10.63
2022-12-25T14:55:07.958Z,9.88
2022-12-25T14:57:39.710Z,9.32
2022-12-25T15:00:26.853Z,13.20
2022-12-25T15:02:55.961Z,10.98
2022-12-25T15:05:25.675Z,13.73
2022-12-25T15:08:08.340Z,10.85
2022-12-25T15:13:21.679Z,8.87
2022-12-25T15:15:58.107Z,9.60
2022-12-25T15:18:27.687Z,10.10
2022-12-25T15:20:55.373Z,9.45
2022-12-25T15:23:22.124Z,9.35
2022-12-25T15:25:51.019Z,9.00
2022-12-25T15:28:17.533Z,8.32
2022-12-25T15:30:44.325Z,9.55
2022-12-25T15:33:14.404Z,9.07
2022-12-25T15:35:40.926Z,15.00
2022-12-25T15:38:07.422Z,14.17
2022-12-25T15:40:34.664Z,14.93
2022-12-25T15:43:06.372Z,14.98
2022-12-25T15:45:38.223Z,12.27
2022-12-25T15:48:18.249Z,10.73
2022-12-25T15:50:46.773Z,10.63
2022-12-25T15:53:13.273Z,10.40
2022-12-25T15:56:03.629Z,12.00
2022-12-25T15:58:30.002Z,9.45
2022-12-25T16:01:15.388Z,7.05
2022-12-25T16:03:42.803Z,9.20
2022-12-25T16:06:30.849Z,8.40
2022-12-25T16:09:03.370Z,9.68
2022-12-25T16:11:29.758Z,7.65
2022-12-25T16:13:59.201Z,10.38
2022-12-25T16:16:40.158Z,9.07
2022-12-25T16:19:07.324Z,9.02
2022-12-25T16:21:45.365Z,8.27
2022-12-25T16:24:26.728Z,9.52
2022-12-25T16:26:58.523Z,9.52
2022-12-25T16:29:33.075Z,9.47
2022-12-25T16:32:18.873Z,9.45
2022-12-25T16:34:45.239Z,9.70
2022-12-25T16:37:41.636Z,9.82
2022-12-25T16:40:44.986Z,8.52
2022-12-25T16:43:29.364Z,8.27
2022-12-25T16:45:57.282Z,11.18
2022-12-25T16:48:45.992Z,11.25
2022-12-25T16:51:21.098Z,11.65
2022-12-25T16:54:06.456Z,8.82
2022-12-25T16:56:41.502Z,13.03
2022-12-25T16:59:07.941Z,13.63
2022-12-25T17:01:34.480Z,14.88
2022-12-25T17:04:12.321Z,11.88
2022-12-25T17:06:51.906Z,12.50
2022-12-25T17:09:19.584Z,12.57
2022-12-25T17:11:47.129Z,13.60
2022-12-25T17:14:14.535Z,14.15
2022-12-25T17:16:41.093Z,11.55
2022-12-25T17:19:20.306Z,14.82
2022-12-25T17:21:54.822Z,13.80
2022-12-25T17:24:36.158Z,11.98
2022-12-25T17:31:27.251Z,11.50
2022-12-25T17:33:53.904Z,11.98
2022-12-25T17:36:25.482Z,9.90
2022-12-25T17:38:54.721Z,12.23
2022-12-25T17:41:21.281Z,10.57
2022-12-25T17:43:48.359Z,11.82
2022-12-25T17:46:17.790Z,14.75
2022-12-25T17:48:45.537Z,12.33
2022-12-25T17:51:14.349Z,12.77
2022-12-25T17:53:51.944Z,12.40
2022-12-25T17:56:24.457Z,14.23
2022-12-25T17:58:56.267Z,13.77
2022-12-25T18:01:42.199Z,15.57
2022-12-25T18:04:09.753Z,15.45
2022-12-25T18:06:45.183Z,13.38
2022-12-25T18:09:19.826Z,15.02
2022-12-25T18:11:55.527Z,15.00
2022-12-25T18:14:22.132Z,21.67
2022-12-25T18:16:57.277Z,27.73
2022-12-25T18:19:32.719Z,18.38
2022-12-25T18:22:05.286Z,13.98
2022-12-25T18:24:37.374Z,15.45
2022-12-25T18:27:09.355Z,14.50
2022-12-25T18:29:40.924Z,22.92
2022-12-25T18:32:28.399Z,31.30
2022-12-25T18:34:56.995Z,22.23
2022-12-25T18:37:27.931Z,20.85
2022-12-25T18:39:54.318Z,15.43
2022-12-25T18:42:40.988Z,17.38
2022-12-25T18:45:20.743Z,19.23
2022-12-25T18:47:47.288Z,21.05
2022-12-25T18:50:13.800Z,14.13
2022-12-25T18:52:56.029Z,14.70
2022-12-25T18:55:26.696Z,11.00
2022-12-25T18:58:05.217Z,15.07
2022-12-25T19:00:31.605Z,13.75
2022-12-25T19:03:01.119Z,15.00
2022-12-25T19:05:43.187Z,17.13
2022-12-25T19:08:37.710Z,20.20
2022-12-25T19:11:08.359Z,15.73
2022-12-25T19:13:39.984Z,13.18
2022-12-25T19:16:44.013Z,18.27
2022-12-25T19:19:14.063Z,14.20
2022-12-25T19:21:44.514Z,11.57
2022-12-25T19:24:11.152Z,16.67
2022-12-25T19:26:47.796Z,12.40
2022-12-25T19:29:18.251Z,11.00
2022-12-25T19:31:44.872Z,19.77
2022-12-25T19:34:28.924Z,11.98
2022-12-25T19:37:01.566Z,13.98
2022-12-25T19:39:34.224Z,21.75
2022-12-25T19:42:00.714Z,16.30
2022-12-25T19:44:33.297Z,12.93
2022-12-25T19:46:59.713Z,19.42
2022-12-25T19:49:33.196Z,21.42
2022-12-25T19:52:01.490Z,16.33
2022-12-25T19:54:45.280Z,24.30
2022-12-25T19:57:22.884Z,25.97
2022-12-25T19:59:51.375Z,19.63
2022-12-25T20:02:23.966Z,18.80
2022-12-25T20:04:50.402Z,28.05
2022-12-25T20:07:16.869Z,21.67
2022-12-25T20:09:55.585Z,18.60
2022-12-25T20:12:21.989Z,19.85
2022-12-25T20:14:54.578Z,16.67
2022-12-25T20:17:29.847Z,17.40
2022-12-25T20:20:15.045Z,17.10
2022-12-25T20:22:42.497Z,19.77
2022-12-25T20:25:11.033Z,19.90
2022-12-25T20:27:37.427Z,21.23
2022-12-25T20:30:04.241Z,21.63
2022-12-25T20:33:05.811Z,17.35
2022-12-25T20:35:32.358Z,16.17
2022-12-25T20:37:59.815Z,16.55
2022-12-25T20:40:52.994Z,15.98
2022-12-25T20:43:45.137Z,21.52
2022-12-25T20:46:22.289Z,18.08
2022-12-25T20:48:53.825Z,20.23
2022-12-25T20:51:22.791Z,20.30
2022-12-25T20:53:52.031Z,19.58
2022-12-25T20:56:21.678Z,19.42
2022-12-25T20:58:59.989Z,19.52
2022-12-25T21:01:28.594Z,17.53
2022-12-25T21:04:04.483Z,16.02
2022-12-25T21:06:33.204Z,17.70
2022-12-25T21:09:01.706Z,15.25
2022-12-25T21:11:34.189Z,16.98
2022-12-25T21:14:00.579Z,15.33
2022-12-25T21:16:36.249Z,13.68
2022-12-25T21:19:02.661Z,18.38
2022-12-25T21:21:31.997Z,17.23
2022-12-25T21:23:58.398Z,18.17
2022-12-25T21:26:26.667Z,18.97
2022-12-25T21:28:55.803Z,16.13
2022-12-25T21:31:22.486Z,14.27
2022-12-25T21:33:53.010Z,17.42
2022-12-25T21:36:41.220Z,15.50
2022-12-25T21:39:08.604Z,16.70
2022-12-25T21:41:37.664Z,15.98
2022-12-25T21:44:14.303Z,14.30
2022-12-25T21:46:40.752Z,15.75
2022-12-25T21:49:57.065Z,13.48
2022-12-25T21:52:43.652Z,15.67
2022-12-25T21:55:15.455Z,16.27
2022-12-25T21:57:43.870Z,15.20
2022-12-25T22:00:10.969Z,14.23
2022-12-25T22:02:37.497Z,18.75
2022-12-25T22:05:04.508Z,17.83
2022-12-25T22:07:35.341Z,18.27
2022-12-25T22:10:02.907Z,15.52
2022-12-25T22:12:56.020Z,18.65
2022-12-25T22:15:22.494Z,15.80
2022-12-25T22:18:07.724Z,14.67
2022-12-25T22:20:38.521Z,16.70
2022-12-25T22:23:19.505Z,17.90
2022-12-25T22:25:46.070Z,16.55
2022-12-25T22:28:27.985Z,13.65
2022-12-25T22:30:54.626Z,14.17
2022-12-25T22:33:32.058Z,12.45
2022-12-25T22:36:08.158Z,12.30
2022-12-25T22:38:35.249Z,12.85
2022-12-25T22:41:08.986Z,11.02
2022-12-25T22:44:14.571Z,10.93
2022-12-25T22:46:22.291Z,12.65
2022-12-25T22:49:00.084Z,10.02
2022-12-25T22:51:30.809Z,12.55
2022-12-25T22:54:03.991Z,11.38
2022-12-25T22:56:32.093Z,9.97
2022-12-25T22:59:00.548Z,9.18
2022-12-25T23:01:27.273Z,9.02
2022-12-25T23:03:54.581Z,8.40
2022-12-25T23:06:21.678Z,10.23
2022-12-25T23:08:48.702Z,9.70
2022-12-25T23:11:23.877Z,9.60
2022-12-25T23:14:15.064Z,9.73
2022-12-25T23:16:49.792Z,10.57
2022-12-25T23:19:35.784Z,9.63
2022-12-25T23:22:34.658Z,10.17
2022-12-25T23:25:37.905Z,9.60
2022-12-25T23:28:06.466Z,9.20
2022-12-25T23:30:33.301Z,9.02
2022-12-25T23:32:59.909Z,9.73
2022-12-25T23:35:28.511Z,10.40
2022-12-25T23:37:59.956Z,10.95
2022-12-25T23:40:26.453Z,10.00
2022-12-25T23:42:53.895Z,8.85
2022-12-25T23:45:34.656Z,11.23
2022-12-25T23:48:01.058Z,8.80
2022-12-25T23:50:43.831Z,12.07
2022-12-25T23:53:23.562Z,11.00
2022-12-25T23:55:55.302Z,10.45
2022-12-25T23:58:27.708Z,10.90
